Time;durP1;ratioP1;P1;durP2;ratioP2;P2;SDS_P1;SDS_P2;PMS_P1;PMS_P2;Temp;Humidity;BMP_temperature;BMP_pressure;BME280_temperature;BME280_humidity;BME280_pressure;Samples;Min_cycle;Max_cycle;Signal;HPM_P1;HPM_P2
2023/04/05 00:01:39;;;;;;;0.00;0.00;;;;;;;;;;5031926;28;20073;-91
2023/04/05 00:04:06;;;;;;;0.00;0.00;;;;;;;;;;5032359;28;20164;-92
2023/04/05 00:06:33;;;;;;;0.45;0.38;;;;;;;;;;5015914;28;20041;-92
2023/04/05 00:09:00;;;;;;;0.00;0.00;;;;;;;;;;5032282;28;20091;-92
2023/04/05 00:11:30;;;;;;;0.00;0.00;;;;;;;;;;5015592;28;20473;-91
2023/04/05 00:13:58;;;;;;;0.45;0.13;;;;;;;;;;5032164;28;20408;-92
2023/04/05 00:16:24;;;;;;;0.40;0.20;;;;;;;;;;5031959;28;20107;-92
2023/04/05 00:18:50;;;;;;;0.00;0.00;;;;;;;;;;5016306;28;20354;-93
2023/04/05 00:21:20;;;;;;;0.00;0.00;;;;;;;;;;5016340;28;20548;-92
2023/04/05 00:23:47;;;;;;;0.00;0.00;;;;;;;;;;5031571;28;20088;-93
2023/04/05 00:26:17;;;;;;;0.00;0.00;;;;;;;;;;5015652;28;20045;-91
2023/04/05 00:28:44;;;;;;;0.10;0.00;;;;;;;;;;5032504;28;20056;-91
2023/04/05 00:31:12;;;;;;;0.00;0.00;;;;;;;;;;5032099;28;20038;-94
2023/04/05 00:33:38;;;;;;;0.00;0.00;;;;;;;;;;5015339;28;20037;-92
2023/04/05 00:36:22;;;;;;;0.00;0.00;;;;;;;;;;5032022;28;20098;-93
2023/04/05 00:38:48;;;;;;;0.00;0.00;;;;;;;;;;5013816;28;20038;-93
2023/04/05 00:41:15;;;;;;;0.00;0.00;;;;;;;;;;5031811;28;20038;-91
2023/04/05 00:43:41;;;;;;;0.00;0.00;;;;;;;;;;5031924;28;20045;-91
2023/04/05 00:46:09;;;;;;;0.00;0.00;;;;;;;;;;5032749;28;20567;-92
2023/04/05 00:48:36;;;;;;;0.22;0.10;;;;;;;;;;5032583;28;20124;-92
2023/04/05 00:51:02;;;;;;;0.28;0.28;;;;;;;;;;5032442;28;20099;-93
2023/04/05 00:53:31;;;;;;;0.00;0.00;;;;;;;;;;5031814;28;20132;-92
2023/04/05 00:55:57;;;;;;;0.00;0.00;;;;;;;;;;5033034;28;20539;-93
2023/04/05 00:58:23;;;;;;;0.00;0.00;;;;;;;;;;5035798;28;20067;-91
2023/04/05 01:01:04;;;;;;;0.38;0.20;;;;;;;;;;5035781;28;20041;-92
2023/04/05 01:03:31;;;;;;;0.00;0.00;;;;;;;;;;5019112;28;20480;-94
2023/04/05 01:06:00;;;;;;;0.00;0.00;;;;;;;;;;5036604;28;20389;-92
2023/04/05 01:08:29;;;;;;;0.00;0.00;;;;;;;;;;5035646;28;20477;-93
2023/04/05 01:10:58;;;;;;;0.00;0.00;;;;;;;;;;5035789;28;20046;-93
2023/04/05 01:13:25;;;;;;;0.00;0.00;;;;;;;;;;5018808;28;20400;-93
2023/04/05 01:15:51;;;;;;;0.00;0.00;;;;;;;;;;5035458;28;20508;-92
2023/04/05 01:18:17;;;;;;;0.00;0.00;;;;;;;;;;5035662;28;20033;-92
2023/04/05 01:20:59;;;;;;;0.00;0.00;;;;;;;;;;5035634;28;20392;-93
2023/04/05 01:23:37;;;;;;;0.00;0.00;;;;;;;;;;5033558;28;20037;-93
2023/04/05 01:26:04;;;;;;;0.00;0.00;;;;;;;;;;4999036;28;20053;-91
2023/04/05 01:28:30;;;;;;;0.00;0.00;;;;;;;;;;4982575;28;20053;-92
2023/04/05 01:31:18;;;;;;;0.00;0.00;;;;;;;;;;4982922;28;20050;-91
2023/04/05 01:34:13;;;;;;;0.00;0.00;;;;;;;;;;4961730;28;20493;-93
2023/04/05 01:36:41;;;;;;;0.00;0.00;;;;;;;;;;4999085;28;20048;-91
2023/04/05 01:39:08;;;;;;;0.00;0.00;;;;;;;;;;4998604;28;20053;-90
2023/04/05 01:41:34;;;;;;;0.00;0.00;;;;;;;;;;4982478;28;20099;-93
2023/04/05 01:44:01;;;;;;;0.00;0.00;;;;;;;;;;4982644;28;20042;-92
2023/04/05 01:46:28;;;;;;;0.80;0.80;;;;;;;;;;4982722;28;20046;-93
2023/04/05 01:48:55;;;;;;;0.00;0.00;;;;;;;;;;4982047;28;20132;-91
2023/04/05 01:51:21;;;;;;;0.00;0.00;;;;;;;;;;4982693;28;20049;-93
2023/04/05 01:53:47;;;;;;;0.00;0.00;;;;;;;;;;4982331;28;20041;-93
2023/04/05 01:56:13;;;;;;;0.00;0.00;;;;;;;;;;4981982;28;20046;-92
2023/04/05 01:58:39;;;;;;;0.00;0.00;;;;;;;;;;4982158;28;20046;-92
2023/04/05 02:01:05;;;;;;;0.00;0.00;;;;;;;;;;4998646;28;20048;-92
2023/04/05 02:03:33;;;;;;;0.00;0.00;;;;;;;;;;4982025;28;20044;-93
2023/04/05 02:05:59;;;;;;;0.00;0.00;;;;;;;;;;4982706;28;20069;-92
2023/04/05 02:08:25;;;;;;;0.00;0.00;;;;;;;;;;4982040;28;20084;-94
2023/04/05 02:10:55;;;;;;;0.00;0.00;;;;;;;;;;4982123;28;20046;-91
2023/04/05 02:13:21;;;;;;;0.00;0.00;;;;;;;;;;4981741;28;20042;-91
2023/04/05 02:15:48;;;;;;;0.00;0.00;;;;;;;;;;4982476;28;20505;-91
2023/04/05 02:18:14;;;;;;;0.00;0.00;;;;;;;;;;4981828;28;20053;-92
2023/04/05 02:20:41;;;;;;;0.10;0.10;;;;;;;;;;4981893;28;20033;-90
2023/04/05 02:23:07;;;;;;;0.38;0.13;;;;;;;;;;4981571;28;20073;-93
2023/04/05 02:25:33;;;;;;;0.00;0.00;;;;;;;;;;5015535;28;20064;-93
2023/04/05 02:27:59;;;;;;;0.00;0.00;;;;;;;;;;5033875;28;20140;-93
2023/04/05 02:30:27;;;;;;;0.00;0.00;;;;;;;;;;5034114;28;20041;-93
2023/04/05 02:32:54;;;;;;;0.00;0.00;;;;;;;;;;5017074;28;20049;-92
2023/04/05 02:35:21;;;;;;;0.00;0.00;;;;;;;;;;5018105;28;20048;-91
2023/04/05 02:37:48;;;;;;;0.00;0.00;;;;;;;;;;5037253;28;20041;-92
2023/04/05 02:40:15;;;;;;;0.00;0.00;;;;;;;;;;5034149;28;20041;-91
2023/04/05 02:42:41;;;;;;;0.00;0.00;;;;;;;;;;5017225;28;20068;-91
2023/04/05 02:45:08;;;;;;;0.00;0.00;;;;;;;;;;5033621;28;20051;-91
2023/04/05 02:47:34;;;;;;;0.00;0.00;;;;;;;;;;5033851;28;20419;-93
2023/04/05 02:50:00;;;;;;;0.00;0.00;;;;;;;;;;5033725;28;20049;-92
2023/04/05 02:52:27;;;;;;;0.00;0.00;;;;;;;;;;5033619;28;20119;-91
2023/04/05 02:54:53;;;;;;;0.00;0.00;;;;;;;;;;5033272;28;20114;-91
2023/04/05 02:57:19;;;;;;;0.00;0.00;;;;;;;;;;5033761;28;20045;-93
2023/04/05 02:59:45;;;;;;;0.00;0.00;;;;;;;;;;5033299;28;20037;-92
2023/04/05 03:02:11;;;;;;;0.00;0.00;;;;;;;;;;5016900;28;20044;-93
2023/04/05 03:04:37;;;;;;;0.00;0.00;;;;;;;;;;5033383;28;20045;-93
2023/04/05 03:07:04;;;;;;;0.00;0.00;;;;;;;;;;5033947;28;20473;-92
2023/04/05 03:09:33;;;;;;;0.00;0.00;;;;;;;;;;5033123;28;20053;-90
2023/04/05 03:12:03;;;;;;;0.00;0.00;;;;;;;;;;5033198;28;20125;-92
2023/04/05 03:14:34;;;;;;;0.00;0.00;;;;;;;;;;5032713;28;20049;-92
2023/04/05 03:17:00;;;;;;;0.00;0.00;;;;;;;;;;5032977;28;20034;-91
2023/04/05 03:19:26;;;;;;;0.00;0.00;;;;;;;;;;5032426;28;20038;-92
2023/04/05 03:21:54;;;;;;;0.00;0.00;;;;;;;;;;5032901;28;20102;-92
2023/04/05 03:24:20;;;;;;;0.00;0.00;;;;;;;;;;5032495;28;20049;-93
2023/04/05 03:26:47;;;;;;;0.00;0.00;;;;;;;;;;5032938;28;20053;-93
2023/04/05 03:29:13;;;;;;;0.00;0.00;;;;;;;;;;5016192;28;20064;-93
2023/04/05 03:31:39;;;;;;;0.00;0.00;;;;;;;;;;5033034;28;20389;-93
2023/04/05 03:34:06;;;;;;;0.00;0.00;;;;;;;;;;5032669;28;20136;-93
2023/04/05 03:36:41;;;;;;;0.00;0.00;;;;;;;;;;5016662;28;20053;-92
2023/04/05 03:39:11;;;;;;;0.00;0.00;;;;;;;;;;5032642;28;20056;-92
2023/04/05 03:41:37;;;;;;;0.00;0.00;;;;;;;;;;5016348;28;20492;-92
2023/04/05 03:44:03;;;;;;;0.00;0.00;;;;;;;;;;5032239;28;20045;-92
2023/04/05 03:46:29;;;;;;;0.00;0.00;;;;;;;;;;5033172;28;20389;-93
2023/04/05 03:48:56;;;;;;;0.00;0.00;;;;;;;;;;5032255;28;20037;-92
2023/04/05 03:51:22;;;;;;;0.00;0.00;;;;;;;;;;5032724;28;20121;-92
2023/04/05 03:53:49;;;;;;;0.00;0.00;;;;;;;;;;5032480;28;20052;-91
2023/04/05 03:56:15;;;;;;;0.00;0.00;;;;;;;;;;5032282;28;20041;-93
2023/04/05 03:58:41;;;;;;;0.00;0.00;;;;;;;;;;5032703;28;20236;-93
2023/04/05 04:01:07;;;;;;;0.00;0.00;;;;;;;;;;5032836;28;20068;-93
2023/04/05 04:03:36;;;;;;;0.00;0.00;;;;;;;;;;5032460;28;20092;-92
2023/04/05 04:06:07;;;;;;;0.00;0.00;;;;;;;;;;5032696;28;20127;-92
2023/04/05 04:08:33;;;;;;;0.00;0.00;;;;;;;;;;5032653;28;20045;-92
2023/04/05 04:10:59;;;;;;;0.38;0.38;;;;;;;;;;5032674;28;20080;-93
2023/04/05 04:13:25;;;;;;;0.00;0.00;;;;;;;;;;5032603;28;20045;-92
2023/04/05 04:15:52;;;;;;;0.00;0.00;;;;;;;;;;5031998;28;20041;-93
2023/04/05 04:18:18;;;;;;;0.15;0.08;;;;;;;;;;5032743;28;20435;-92
2023/04/05 04:20:46;;;;;;;0.00;0.00;;;;;;;;;;5032448;28;20037;-92
2023/04/05 04:23:14;;;;;;;0.00;0.00;;;;;;;;;;5015571;28;20038;-91
2023/04/05 04:25:44;;;;;;;0.00;0.00;;;;;;;;;;5031562;28;20057;-93
2023/04/05 04:28:12;;;;;;;0.00;0.00;;;;;;;;;;5032312;28;20080;-93
2023/04/05 04:30:42;;;;;;;0.00;0.00;;;;;;;;;;5018098;28;20041;-93
2023/04/05 04:33:08;;;;;;;0.00;0.00;;;;;;;;;;5020006;28;20080;-92
2023/04/05 04:35:37;;;;;;;0.00;0.00;;;;;;;;;;5036000;28;20045;-92
2023/04/05 04:38:07;;;;;;;0.10;0.10;;;;;;;;;;5019831;28;20132;-92
2023/04/05 04:40:49;;;;;;;0.00;0.00;;;;;;;;;;5036483;28;20480;-92
2023/04/05 04:43:26;;;;;;;0.00;0.00;;;;;;;;;;5019662;28;20049;-92
2023/04/05 04:45:54;;;;;;;0.00;0.00;;;;;;;;;;5035966;28;20041;-93
2023/04/05 04:48:20;;;;;;;0.00;0.00;;;;;;;;;;5035975;28;20147;-93
2023/04/05 04:50:50;;;;;;;0.00;0.00;;;;;;;;;;5035780;28;20052;-93
2023/04/05 04:53:17;;;;;;;0.00;0.00;;;;;;;;;;5019606;28;20047;-94
2023/04/05 04:55:43;;;;;;;0.00;0.00;;;;;;;;;;5019131;28;20096;-93
2023/04/05 04:58:12;;;;;;;0.10;0.00;;;;;;;;;;5036037;28;20475;-91
2023/04/05 05:00:43;;;;;;;0.00;0.00;;;;;;;;;;5035312;28;20053;-93
2023/04/05 05:03:13;;;;;;;0.40;0.10;;;;;;;;;;5019282;28;20041;-93
2023/04/05 05:05:44;;;;;;;0.00;0.00;;;;;;;;;;5019437;28;20469;-92
2023/04/05 05:08:10;;;;;;;0.00;0.00;;;;;;;;;;5019233;28;20075;-93
2023/04/05 05:10:36;;;;;;;0.00;0.00;;;;;;;;;;5035433;28;20483;-93
2023/04/05 05:13:02;;;;;;;0.35;0.30;;;;;;;;;;5019179;28;20138;-93
2023/04/05 05:15:29;;;;;;;0.00;0.00;;;;;;;;;;5018507;28;20052;-91
2023/04/05 05:17:57;;;;;;;0.00;0.00;;;;;;;;;;5019163;28;20544;-92
2023/04/05 05:20:27;;;;;;;0.00;0.00;;;;;;;;;;5035187;28;20037;-92
2023/04/05 05:22:55;;;;;;;0.00;0.00;;;;;;;;;;5018939;28;20040;-92
2023/04/05 05:25:21;;;;;;;0.00;0.00;;;;;;;;;;5034203;28;20069;-93
2023/04/05 05:27:49;;;;;;;0.00;0.00;;;;;;;;;;4982999;28;20398;-93
2023/04/05 05:30:15;;;;;;;0.00;0.00;;;;;;;;;;4982474;28;20041;-93
2023/04/05 05:32:41;;;;;;;0.00;0.00;;;;;;;;;;4982492;28;20049;-93
2023/04/05 05:35:08;;;;;;;0.00;0.00;;;;;;;;;;4983002;28;20046;-91
2023/04/05 05:37:37;;;;;;;0.10;0.05;;;;;;;;;;4982721;28;20088;-91
2023/04/05 05:40:15;;;;;;;0.00;0.00;;;;;;;;;;4982889;28;20073;-93
2023/04/05 05:42:41;;;;;;;0.00;0.00;;;;;;;;;;4981487;28;20481;-93
2023/04/05 05:45:07;;;;;;;0.00;0.00;;;;;;;;;;4982496;28;20048;-92
2023/04/05 05:47:37;;;;;;;0.00;0.00;;;;;;;;;;4982807;28;20048;-93
2023/04/05 05:50:03;;;;;;;0.00;0.00;;;;;;;;;;4982282;28;20054;-92
2023/04/05 05:52:29;;;;;;;0.00;0.00;;;;;;;;;;5096309;22;20035;-93
2023/04/05 05:54:56;;;;;;;0.00;0.00;;;;;;;;;;5057648;28;20456;-92
2023/04/05 05:57:26;;;;;;;0.00;0.00;;;;;;;;;;5058601;28;20076;-95
2023/04/05 05:59:52;;;;;;;0.00;0.00;;;;;;;;;;5058379;28;20032;-94
2023/04/05 06:02:20;;;;;;;0.35;0.13;;;;;;;;;;5058274;28;20063;-92
2023/04/05 06:04:48;;;;;;;0.00;0.00;;;;;;;;;;5057796;28;20051;-94
2023/04/05 06:07:18;;;;;;;0.00;0.00;;;;;;;;;;5057767;28;20036;-93
2023/04/05 06:09:46;;;;;;;3.83;0.25;;;;;;;;;;5057493;28;20052;-91
2023/04/05 06:12:15;;;;;;;0.00;0.00;;;;;;;;;;5057721;28;20509;-93
2023/04/05 06:14:45;;;;;;;0.00;0.00;;;;;;;;;;5057614;28;20040;-93
2023/04/05 06:17:13;;;;;;;0.00;0.00;;;;;;;;;;5041356;28;20052;-93
2023/04/05 06:19:41;;;;;;;0.00;0.00;;;;;;;;;;5057757;28;20094;-93
2023/04/05 06:22:10;;;;;;;0.00;0.00;;;;;;;;;;5041374;28;20127;-94
2023/04/05 06:24:42;;;;;;;0.00;0.00;;;;;;;;;;5058202;28;20044;-94
2023/04/05 06:27:13;;;;;;;0.00;0.00;;;;;;;;;;5074088;28;20480;-94
2023/04/05 06:29:40;;;;;;;0.20;0.10;;;;;;;;;;5058003;28;20063;-94
2023/04/05 06:32:06;;;;;;;0.00;0.00;;;;;;;;;;5058160;28;20048;-93
2023/04/05 06:34:35;;;;;;;0.00;0.00;;;;;;;;;;5057528;28;20040;-92
2023/04/05 06:37:01;;;;;;;0.00;0.00;;;;;;;;;;5057808;28;20048;-92
2023/04/05 06:39:52;;;;;;;0.00;0.00;;;;;;;;;;5058074;28;20127;-92
2023/04/05 06:42:19;;;;;;;0.00;0.00;;;;;;;;;;5057637;28;20040;-91
2023/04/05 06:44:45;;;;;;;0.00;0.00;;;;;;;;;;5056969;28;20048;-93
2023/04/05 06:47:26;;;;;;;0.00;0.00;;;;;;;;;;5041380;28;20036;-93
2023/04/05 06:50:05;;;;;;;0.00;0.00;;;;;;;;;;5073573;28;20033;-92
2023/04/05 06:52:31;;;;;;;0.00;0.00;;;;;;;;;;5055354;28;20067;-92
2023/04/05 06:55:00;;;;;;;0.10;0.10;;;;;;;;;;5020043;28;20155;-91
2023/04/05 06:57:27;;;;;;;0.22;0.20;;;;;;;;;;5020017;28;20037;-93
2023/04/05 06:59:53;;;;;;;0.00;0.00;;;;;;;;;;5020199;28;20039;-93
2023/04/05 07:02:22;;;;;;;0.00;0.00;;;;;;;;;;5004101;28;20128;-91
2023/04/05 07:04:48;;;;;;;0.00;0.00;;;;;;;;;;5036919;28;20404;-92
2023/04/05 07:07:15;;;;;;;0.00;0.00;;;;;;;;;;5023014;28;20118;-93
2023/04/05 07:09:42;;;;;;;0.75;0.57;;;;;;;;;;5037506;28;20131;-94
2023/04/05 07:12:08;;;;;;;0.45;0.43;;;;;;;;;;5036246;28;20139;-92
2023/04/05 07:14:35;;;;;;;0.20;0.20;;;;;;;;;;5019891;28;20048;-93
2023/04/05 07:17:02;;;;;;;0.47;0.35;;;;;;;;;;5019547;28;20551;-91
2023/04/05 07:19:28;;;;;;;0.00;0.00;;;;;;;;;;5019520;28;20128;-92
2023/04/05 07:21:55;;;;;;;0.00;0.00;;;;;;;;;;5019632;28;20040;-91
2023/04/05 07:24:21;;;;;;;0.00;0.00;;;;;;;;;;5019690;28;20550;-91
2023/04/05 07:26:47;;;;;;;0.00;0.00;;;;;;;;;;5019344;28;20068;-92
2023/04/05 07:29:13;;;;;;;0.00;0.00;;;;;;;;;;5019884;28;20041;-91
2023/04/05 07:31:39;;;;;;;0.00;0.00;;;;;;;;;;5019663;28;20120;-92
2023/04/05 07:34:05;;;;;;;0.00;0.00;;;;;;;;;;5019706;28;20041;-93
2023/04/05 07:36:34;;;;;;;0.00;0.00;;;;;;;;;;5019573;28;20503;-92
2023/04/05 07:39:00;;;;;;;0.38;0.10;;;;;;;;;;5035773;28;20048;-92
2023/04/05 07:41:31;;;;;;;0.17;0.00;;;;;;;;;;5035856;28;20056;-93
2023/04/05 07:44:00;;;;;;;0.43;0.03;;;;;;;;;;5004146;28;20041;-91
2023/04/05 07:46:26;;;;;;;0.10;0.10;;;;;;;;;;5019198;28;20045;-92
2023/04/05 07:48:52;;;;;;;0.10;0.05;;;;;;;;;;5019349;28;20139;-91
2023/04/05 07:51:20;;;;;;;0.00;0.00;;;;;;;;;;5035464;28;20041;-90
2023/04/05 07:53:47;;;;;;;0.00;0.00;;;;;;;;;;5038490;28;20067;-92
2023/04/05 07:56:13;;;;;;;0.00;0.00;;;;;;;;;;5055110;28;20048;-91
2023/04/05 07:58:40;;;;;;;0.32;0.10;;;;;;;;;;5055535;28;20043;-92
2023/04/05 08:01:06;;;;;;;0.00;0.00;;;;;;;;;;5055532;28;20036;-92
2023/04/05 08:03:38;;;;;;;0.00;0.00;;;;;;;;;;5055250;28;20036;-92
2023/04/05 08:06:19;;;;;;;0.00;0.00;;;;;;;;;;5054777;28;20047;-92
2023/04/05 08:08:45;;;;;;;0.00;0.00;;;;;;;;;;5055605;28;20423;-91
2023/04/05 08:11:11;;;;;;;0.00;0.00;;;;;;;;;;5055027;28;20040;-91
2023/04/05 08:13:40;;;;;;;0.00;0.00;;;;;;;;;;5054966;28;20044;-93
2023/04/05 08:16:09;;;;;;;0.00;0.00;;;;;;;;;;5054743;28;20396;-91
2023/04/05 08:18:36;;;;;;;0.00;0.00;;;;;;;;;;5071996;28;20083;-91
2023/04/05 08:21:02;;;;;;;0.00;0.00;;;;;;;;;;5055189;28;20041;-91
2023/04/05 08:23:28;;;;;;;0.00;0.00;;;;;;;;;;5054686;28;20041;-91
2023/04/05 08:25:54;;;;;;;0.98;0.90;;;;;;;;;;5054792;28;20131;-92
2023/04/05 08:28:20;;;;;;;1.10;0.30;;;;;;;;;;5055128;28;20051;-91
2023/04/05 08:30:56;;;;;;;0.00;0.00;;;;;;;;;;5055078;28;20086;-91
2023/04/05 08:33:22;;;;;;;;;;;;;;;;;;5055294;28;20467;-91
2023/04/05 08:35:48;;;;;;;0.70;0.00;;;;;;;;;;5054527;28;19966;-91
2023/04/05 08:38:14;;;;;;;0.00;0.00;;;;;;;;;;5054524;28;20044;-91
2023/04/05 08:40:42;;;;;;;0.00;0.00;;;;;;;;;;5054949;28;20115;-92
2023/04/05 08:43:10;;;;;;;0.00;0.00;;;;;;;;;;5054388;28;20257;-91
2023/04/05 08:45:40;;;;;;;0.00;0.00;;;;;;;;;;5054958;28;20076;-92
2023/04/05 08:48:10;;;;;;;0.00;0.00;;;;;;;;;;5055662;28;20049;-91
2023/04/05 08:50:36;;;;;;;0.00;0.00;;;;;;;;;;5054897;28;20146;-92
2023/04/05 08:53:02;;;;;;;0.00;0.00;;;;;;;;;;5054522;28;20071;-91
2023/04/05 08:55:28;;;;;;;0.00;0.00;;;;;;;;;;5054548;28;20385;-91
2023/04/05 08:57:57;;;;;;;0.00;0.00;;;;;;;;;;5054502;28;20049;-92
2023/04/05 09:00:24;;;;;;;0.00;0.00;;;;;;;;;;5038637;28;20047;-93
2023/04/05 09:02:54;;;;;;;0.03;0.03;;;;;;;;;;5038077;28;20089;-93
2023/04/05 09:05:23;;;;;;;0.32;0.22;;;;;;;;;;5060169;28;20048;-93
2023/04/05 09:07:50;;;;;;;0.00;0.00;;;;;;;;;;5054916;28;20403;-91
2023/04/05 09:10:19;;;;;;;0.00;0.00;;;;;;;;;;5071801;28;20499;-91
2023/04/05 09:12:47;;;;;;;0.00;0.00;;;;;;;;;;5054765;28;20123;-91
2023/04/05 09:15:16;;;;;;;0.47;0.20;;;;;;;;;;5054535;28;20086;-93
2023/04/05 09:17:43;;;;;;;2.65;0.25;;;;;;;;;;5056556;28;20208;-91
2023/04/05 09:20:09;;;;;;;0.08;0.08;;;;;;;;;;5058644;28;20040;-91
2023/04/05 09:22:42;;;;;;;0.08;0.00;;;;;;;;;;5074642;28;20081;-90
2023/04/05 09:25:08;;;;;;;0.00;0.00;;;;;;;;;;5041640;28;20072;-91
2023/04/05 09:27:38;;;;;;;0.40;0.30;;;;;;;;;;5057736;28;20058;-91
2023/04/05 09:30:20;;;;;;;0.10;0.00;;;;;;;;;;5058216;28;20033;-91
2023/04/05 09:32:46;;;;;;;0.00;0.00;;;;;;;;;;5074146;28;20140;-90
2023/04/05 09:35:18;;;;;;;0.80;0.00;;;;;;;;;;5074356;28;20103;-94
2023/04/05 09:37:54;;;;;;;0.00;0.00;;;;;;;;;;5074353;28;20371;-89
2023/04/05 09:40:22;;;;;;;0.00;0.00;;;;;;;;;;5074230;28;20040;-90
2023/04/05 09:42:48;;;;;;;0.00;0.00;;;;;;;;;;5056984;28;20128;-90
2023/04/05 09:45:15;;;;;;;0.40;0.10;;;;;;;;;;5074274;28;20106;-91
2023/04/05 09:47:41;;;;;;;0.00;0.00;;;;;;;;;;5057621;28;20212;-90
2023/04/05 09:50:17;;;;;;;0.25;0.10;;;;;;;;;;5057499;28;20040;-90
2023/04/05 09:52:44;;;;;;;0.00;0.00;;;;;;;;;;5054002;28;20056;-91
2023/04/05 09:55:10;;;;;;;0.00;0.00;;;;;;;;;;5021445;28;20404;-91
2023/04/05 09:57:37;;;;;;;0.25;0.10;;;;;;;;;;5020582;28;20145;-91
2023/04/05 10:00:04;;;;;;;0.00;0.00;;;;;;;;;;5021133;28;20041;-90
2023/04/05 10:02:38;;;;;;;0.00;0.00;;;;;;;;;;5037115;28;20041;-90
2023/04/05 10:05:12;;;;;;;0.00;0.00;;;;;;;;;;5020742;28;20506;-90
2023/04/05 10:07:41;;;;;;;0.00;0.00;;;;;;;;;;5020539;28;20044;-91
2023/04/05 10:10:08;;;;;;;0.00;0.00;;;;;;;;;;5020583;28;20102;-90
2023/04/05 10:12:37;;;;;;;0.00;0.00;;;;;;;;;;5020234;28;20041;-89
2023/04/05 10:15:04;;;;;;;0.00;0.00;;;;;;;;;;5020285;28;20037;-87
2023/04/05 10:17:39;;;;;;;0.00;0.00;;;;;;;;;;5019929;28;20033;-87
2023/04/05 10:20:14;;;;;;;0.00;0.00;;;;;;;;;;5020154;28;20041;-86
2023/04/05 10:22:59;;;;;;;0.00;0.00;;;;;;;;;;5036409;28;20117;-87
2023/04/05 10:25:44;;;;;;;0.00;0.00;;;;;;;;;;5020414;28;20040;-88
2023/04/05 10:28:11;;;;;;;0.00;0.00;;;;;;;;;;5035854;28;20064;-87
2023/04/05 10:30:43;;;;;;;0.00;0.00;;;;;;;;;;5019921;28;20565;-87
2023/04/05 10:33:10;;;;;;;0.00;0.00;;;;;;;;;;5035948;28;20132;-87
2023/04/05 10:35:55;;;;;;;0.00;0.00;;;;;;;;;;5036399;28;20376;-87
2023/04/05 10:38:27;;;;;;;0.17;0.10;;;;;;;;;;5019406;28;20076;-88
2023/04/05 10:40:55;;;;;;;0.00;0.00;;;;;;;;;;5037325;28;20345;-86
2023/04/05 10:43:22;;;;;;;0.00;0.00;;;;;;;;;;5035491;28;20571;-87
2023/04/05 10:45:51;;;;;;;0.00;0.00;;;;;;;;;;5035975;28;20051;-86
2023/04/05 10:48:32;;;;;;;0.00;0.00;;;;;;;;;;5035761;28;20143;-86
2023/04/05 10:50:59;;;;;;;0.00;0.00;;;;;;;;;;5019187;28;20040;-86
2023/04/05 10:53:26;;;;;;;0.00;0.00;;;;;;;;;;5033341;28;20557;-87
2023/04/05 10:55:52;;;;;;;0.00;0.00;;;;;;;;;;5055681;28;20491;-87
2023/04/05 10:58:18;;;;;;;0.00;0.00;;;;;;;;;;5055592;28;20333;-88
2023/04/05 11:00:46;;;;;;;0.20;0.17;;;;;;;;;;5072466;28;20033;-87
2023/04/05 11:03:32;;;;;;;0.00;0.00;;;;;;;;;;5071859;28;20043;-87
2023/04/05 11:06:18;;;;;;;0.00;0.00;;;;;;;;;;5072053;28;20140;-87
2023/04/05 11:08:45;;;;;;;0.00;0.00;;;;;;;;;;5072006;28;20106;-87
2023/04/05 11:11:15;;;;;;;0.00;0.00;;;;;;;;;;5055448;28;20068;-87
2023/04/05 11:13:47;;;;;;;0.00;0.00;;;;;;;;;;5038779;28;20048;-88
2023/04/05 11:16:13;;;;;;;0.00;0.00;;;;;;;;;;5071986;28;20433;-88
2023/04/05 11:18:44;;;;;;;0.00;0.00;;;;;;;;;;5055020;28;20124;-86
2023/04/05 11:21:10;;;;;;;0.00;0.00;;;;;;;;;;5055394;28;20472;-87
2023/04/05 11:23:56;;;;;;;0.00;0.00;;;;;;;;;;5071576;28;20071;-86
2023/04/05 11:26:22;;;;;;;;;;;;;;;;;;5072294;28;20086;-87
2023/04/05 11:28:48;;;;;;;0.00;0.00;;;;;;;;;;5055081;28;20345;-87
2023/04/05 11:31:15;;;;;;;0.00;0.00;;;;;;;;;;5055458;28;20123;-87
2023/04/05 11:33:44;;;;;;;0.00;0.00;;;;;;;;;;5055048;28;20106;-88
2023/04/05 11:36:11;;;;;;;0.00;0.00;;;;;;;;;;5071685;28;20131;-86
2023/04/05 11:38:39;;;;;;;0.00;0.00;;;;;;;;;;5054993;28;20078;-86
2023/04/05 11:41:20;;;;;;;0.00;0.00;;;;;;;;;;5071327;28;20475;-87
2023/04/05 11:43:51;;;;;;;0.00;0.00;;;;;;;;;;5071518;28;20080;-88
2023/04/05 11:46:17;;;;;;;0.00;0.00;;;;;;;;;;5068759;28;20041;-87
2023/04/05 11:48:48;;;;;;;0.00;0.00;;;;;;;;;;5054869;28;20036;-87
2023/04/05 11:51:15;;;;;;;0.00;0.00;;;;;;;;;;5071753;28;20424;-87
2023/04/05 11:53:46;;;;;;;0.00;0.00;;;;;;;;;;5070952;28;20067;-87
2023/04/05 11:56:14;;;;;;;0.00;0.00;;;;;;;;;;5054585;28;20052;-87
2023/04/05 11:58:41;;;;;;;0.00;0.00;;;;;;;;;;5071976;28;20062;-87
2023/04/05 12:01:07;;;;;;;0.00;0.00;;;;;;;;;;5054805;28;20037;-87
2023/04/05 12:03:34;;;;;;;0.00;0.00;;;;;;;;;;5071271;28;20507;-87
2023/04/05 12:06:04;;;;;;;0.00;0.00;;;;;;;;;;5054796;28;20435;-87
2023/04/05 12:08:55;;;;;;;0.00;0.00;;;;;;;;;;5054220;28;20040;-87
2023/04/05 12:11:29;;;;;;;0.00;0.00;;;;;;;;;;5054558;28;20055;-88
2023/04/05 12:13:57;;;;;;;0.00;0.00;;;;;;;;;;5054418;28;20055;-86
2023/04/05 12:16:23;;;;;;;0.20;0.05;;;;;;;;;;5070935;28;20045;-87
2023/04/05 12:18:54;;;;;;;0.00;0.00;;;;;;;;;;5071458;28;20070;-86
2023/04/05 12:21:20;;;;;;;0.00;0.00;;;;;;;;;;5071851;28;20581;-88
2023/04/05 12:23:46;;;;;;;0.00;0.00;;;;;;;;;;5055357;28;20086;-88
2023/04/05 12:26:12;;;;;;;0.00;0.00;;;;;;;;;;5071990;28;20479;-87
2023/04/05 12:28:57;;;;;;;0.00;0.00;;;;;;;;;;5071194;28;20048;-87
2023/04/05 12:31:39;;;;;;;0.38;0.20;;;;;;;;;;5071094;28;20044;-86
2023/04/05 12:34:06;;;;;;;0.00;0.00;;;;;;;;;;5070959;28;20545;-87
2023/04/05 12:36:32;;;;;;;0.00;0.00;;;;;;;;;;5054501;28;20041;-86
2023/04/05 12:38:58;;;;;;;0.00;0.00;;;;;;;;;;5054383;28;20037;-87
2023/04/05 12:41:28;;;;;;;0.00;0.00;;;;;;;;;;5071187;28;20047;-87
2023/04/05 12:44:01;;;;;;;0.10;0.10;;;;;;;;;;5070658;28;20044;-87
2023/04/05 12:46:40;;;;;;;0.00;0.00;;;;;;;;;;5054113;28;20488;-87
2023/04/05 12:49:06;;;;;;;0.10;0.05;;;;;;;;;;5070464;28;20040;-87
2023/04/05 12:51:32;;;;;;;0.00;0.00;;;;;;;;;;5073192;28;20503;-87
2023/04/05 12:54:02;;;;;;;0.00;0.00;;;;;;;;;;5074472;28;20110;-86
2023/04/05 12:56:29;;;;;;;0.00;0.00;;;;;;;;;;5057863;28;20044;-87
2023/04/05 12:58:55;;;;;;;0.00;0.00;;;;;;;;;;5074562;28;20557;-86
2023/04/05 13:01:21;;;;;;;0.00;0.00;;;;;;;;;;5058134;28;20044;-86
2023/04/05 13:03:47;;;;;;;0.00;0.00;;;;;;;;;;5074514;28;20040;-86
2023/04/05 13:06:13;;;;;;;0.00;0.00;;;;;;;;;;5074495;28;20050;-87
2023/04/05 13:08:39;;;;;;;0.00;0.00;;;;;;;;;;5058059;28;20048;-87
2023/04/05 13:11:05;;;;;;;0.00;0.00;;;;;;;;;;5074482;28;20041;-86
2023/04/05 13:13:33;;;;;;;0.00;0.00;;;;;;;;;;5074392;28;20472;-86
2023/04/05 13:15:59;;;;;;;0.00;0.00;;;;;;;;;;5074104;28;20048;-86
2023/04/05 13:18:25;;;;;;;0.00;0.00;;;;;;;;;;5074843;28;20082;-86
2023/04/05 13:20:53;;;;;;;0.00;0.00;;;;;;;;;;5074372;28;20391;-87
2023/04/05 13:23:19;;;;;;;0.00;0.00;;;;;;;;;;5074404;28;20037;-89
2023/04/05 13:25:45;;;;;;;0.00;0.00;;;;;;;;;;5074028;28;20510;-88
2023/04/05 13:28:11;;;;;;;0.00;0.00;;;;;;;;;;5057353;28;20060;-86
2023/04/05 13:30:38;;;;;;;0.00;0.00;;;;;;;;;;5074121;28;20040;-86
2023/04/05 13:33:04;;;;;;;0.00;0.00;;;;;;;;;;5057707;28;20055;-86
2023/04/05 13:35:30;;;;;;;0.22;0.00;;;;;;;;;;5073714;28;20036;-88
2023/04/05 13:37:56;;;;;;;0.00;0.00;;;;;;;;;;5073872;28;20067;-86
2023/04/05 13:40:22;;;;;;;0.00;0.00;;;;;;;;;;5074325;28;20036;-88
2023/04/05 13:42:48;;;;;;;0.00;0.00;;;;;;;;;;5074451;28;20055;-87
2023/04/05 13:45:14;;;;;;;0.00;0.00;;;;;;;;;;5075399;28;20499;-87
2023/04/05 13:47:40;;;;;;;0.00;0.00;;;;;;;;;;5074268;28;20040;-87
2023/04/05 13:50:07;;;;;;;1.27;0.00;;;;;;;;;;5057032;28;20064;-87
2023/04/05 13:52:33;;;;;;;0.00;0.00;;;;;;;;;;5055604;28;20066;-86
2023/04/05 13:54:59;;;;;;;0.00;0.00;;;;;;;;;;5037678;28;20392;-86
2023/04/05 13:57:25;;;;;;;0.00;0.00;;;;;;;;;;5037460;28;20045;-86
2023/04/05 13:59:51;;;;;;;0.00;0.00;;;;;;;;;;5036858;28;20132;-86
2023/04/05 14:02:19;;;;;;;0.00;0.00;;;;;;;;;;5036097;28;20093;-86
2023/04/05 14:04:45;;;;;;;0.00;0.00;;;;;;;;;;5036679;28;20415;-87
2023/04/05 14:07:11;;;;;;;0.00;0.00;;;;;;;;;;5036776;28;20125;-87
2023/04/05 14:09:37;;;;;;;0.00;0.00;;;;;;;;;;5036701;28;20131;-86
2023/04/05 14:12:03;;;;;;;0.00;0.00;;;;;;;;;;5036648;28;20037;-87
2023/04/05 14:14:30;;;;;;;0.00;0.00;;;;;;;;;;5020329;28;20507;-87
2023/04/05 14:16:56;;;;;;;0.15;0.00;;;;;;;;;;5036563;28;20153;-86
2023/04/05 14:19:22;;;;;;;0.00;0.00;;;;;;;;;;5036896;28;20124;-86
2023/04/05 14:21:49;;;;;;;0.00;0.00;;;;;;;;;;5036422;28;20130;-87
2023/04/05 14:24:15;;;;;;;0.00;0.00;;;;;;;;;;5036747;28;20377;-86
2023/04/05 14:26:44;;;;;;;0.00;0.00;;;;;;;;;;5036457;28;20060;-87
2023/04/05 14:29:10;;;;;;;0.00;0.00;;;;;;;;;;5036658;28;20119;-86
2023/04/05 14:31:36;;;;;;;0.00;0.00;;;;;;;;;;5019981;28;20072;-86
2023/04/05 14:34:02;;;;;;;0.00;0.00;;;;;;;;;;5036240;28;20480;-87
2023/04/05 14:36:28;;;;;;;0.00;0.00;;;;;;;;;;5036107;28;20129;-86
2023/04/05 14:38:54;;;;;;;0.00;0.00;;;;;;;;;;5036403;28;20072;-86
2023/04/05 14:41:20;;;;;;;0.00;0.00;;;;;;;;;;5036027;28;20071;-88
2023/04/05 14:43:46;;;;;;;0.00;0.00;;;;;;;;;;5035874;28;20053;-86
2023/04/05 14:46:12;;;;;;;0.00;0.00;;;;;;;;;;5019604;28;20051;-85
2023/04/05 14:48:38;;;;;;;0.00;0.00;;;;;;;;;;5019708;28;20140;-85
2023/04/05 14:51:04;;;;;;;0.00;0.00;;;;;;;;;;5036080;28;20041;-89